sensor_id;sensor_type;location;lat;lon;timestamp;pressure;altitude;pressure_sealevel;temperature;humidity
46303;BME280;32029;51.358;5.628;2022-10-16T00:01:38;100765.81;;;14.91;98.74
46303;BME280;32029;51.358;5.628;2022-10-16T00:04:06;100789.34;;;15.07;98.84
46303;BME280;32029;51.358;5.628;2022-10-16T00:06:34;100733.13;;;14.75;98.72
46303;BME280;32029;51.358;5.628;2022-10-16T00:09:01;100767.06;;;14.95;99.11
46303;BME280;32029;51.358;5.628;2022-10-16T00:11:32;100759.84;;;14.94;98.97
46303;BME280;32029;51.358;5.628;2022-10-16T00:14:01;100774.88;;;15.11;98.89
46303;BME280;32029;51.358;5.628;2022-10-16T00:16:29;100774.03;;;15.04;98.84
46303;BME280;32029;51.358;5.628;2022-10-16T00:18:56;100785.72;;;15.06;98.87
46303;BME280;32029;51.358;5.628;2022-10-16T00:21:28;100762.38;;;14.89;98.96
46303;BME280;32029;51.358;5.628;2022-10-16T00:24:07;100796.31;;;15.09;98.65
46303;BME280;32029;51.358;5.628;2022-10-16T00:26:35;100760.69;;;14.88;98.94
46303;BME280;32029;51.358;5.628;2022-10-16T00:29:03;100783.59;;;15.08;99.01
46303;BME280;32029;51.358;5.628;2022-10-16T00:31:30;100774.69;;;15.06;98.96
46303;BME280;32029;51.358;5.628;2022-10-16T00:33:58;100779.75;;;15.09;98.92
46303;BME280;32029;51.358;5.628;2022-10-16T00:36:25;100764.97;;;14.90;98.69
46303;BME280;32029;51.358;5.628;2022-10-16T00:38:55;100770.84;;;15.01;98.35
46303;BME280;32029;51.358;5.628;2022-10-16T00:41:23;100756.44;;;14.85;98.74
46303;BME280;32029;51.358;5.628;2022-10-16T00:43:56;100759.44;;;14.77;98.89
46303;BME280;32029;51.358;5.628;2022-10-16T00:46:35;100774.50;;;14.88;99.06
46303;BME280;32029;51.358;5.628;2022-10-16T00:49:08;100792.53;;;14.97;98.89
46303;BME280;32029;51.358;5.628;2022-10-16T00:51:37;100800.22;;;14.95;98.93
46303;BME280;32029;51.358;5.628;2022-10-16T00:54:09;100800.66;;;14.92;98.93
46303;BME280;32029;51.358;5.628;2022-10-16T00:56:36;100809.16;;;14.90;99.19
46303;BME280;32029;51.358;5.628;2022-10-16T00:59:08;100812.34;;;14.87;98.92
46303;BME280;32029;51.358;5.628;2022-10-16T01:01:37;100787.09;;;14.70;98.97
46303;BME280;32029;51.358;5.628;2022-10-16T01:04:03;100801.94;;;14.83;98.98
46303;BME280;32029;51.358;5.628;2022-10-16T01:06:51;100816.38;;;14.78;98.88
46303;BME280;32029;51.358;5.628;2022-10-16T01:09:46;100800.69;;;14.72;98.87
46303;BME280;32029;51.358;5.628;2022-10-16T01:12:54;100780.09;;;14.61;98.88
46303;BME280;32029;51.358;5.628;2022-10-16T01:15:32;100791.97;;;14.62;98.88
46303;BME280;32029;51.358;5.628;2022-10-16T01:18:08;100787.53;;;14.54;98.96
46303;BME280;32029;51.358;5.628;2022-10-16T01:20:54;100772.66;;;14.49;98.94
46303;BME280;32029;51.358;5.628;2022-10-16T01:31:36;100778.16;;;14.42;99.24
46303;BME280;32029;51.358;5.628;2022-10-16T01:34:18;100795.16;;;14.39;99.08
46303;BME280;32029;51.358;5.628;2022-10-16T01:36:51;100775.66;;;14.20;99.29
46303;BME280;32029;51.358;5.628;2022-10-16T01:39:22;100798.56;;;14.34;99.43
46303;BME280;32029;51.358;5.628;2022-10-16T01:42:13;100799.84;;;14.32;99.22
46303;BME280;32029;51.358;5.628;2022-10-16T01:44:42;100790.91;;;14.23;99.49
46303;BME280;32029;51.358;5.628;2022-10-16T01:47:12;100804.94;;;14.28;99.55
46303;BME280;32029;51.358;5.628;2022-10-16T01:49:41;100798.59;;;14.28;99.79
46303;BME280;32029;51.358;5.628;2022-10-16T01:52:14;100788.78;;;14.18;99.60
46303;BME280;32029;51.358;5.628;2022-10-16T01:54:46;100800.47;;;14.27;100.00
46303;BME280;32029;51.358;5.628;2022-10-16T01:57:16;100787.09;;;14.17;99.76
46303;BME280;32029;51.358;5.628;2022-10-16T01:59:47;100808.75;;;14.27;99.70
46303;BME280;32029;51.358;5.628;2022-10-16T02:02:17;100807.91;;;14.27;99.50
46303;BME280;32029;51.358;5.628;2022-10-16T02:04:48;100811.72;;;14.26;99.48
46303;BME280;32029;51.358;5.628;2022-10-16T02:07:16;100789.84;;;14.11;99.55
46303;BME280;32029;51.358;5.628;2022-10-16T02:09:43;100769.25;;;14.00;99.57
46303;BME280;32029;51.358;5.628;2022-10-16T02:12:15;100804.53;;;14.25;99.48
46303;BME280;32029;51.358;5.628;2022-10-16T02:14:42;100795.59;;;14.16;99.50
46303;BME280;32029;51.358;5.628;2022-10-16T02:17:14;100815.34;;;14.26;99.59
46303;BME280;32029;51.358;5.628;2022-10-16T02:19:42;100798.16;;;14.17;99.36
46303;BME280;32029;51.358;5.628;2022-10-16T02:22:16;100800.69;;;14.26;99.06
46303;BME280;32029;51.358;5.628;2022-10-16T02:24:59;100805.56;;;14.23;99.31
46303;BME280;32029;51.358;5.628;2022-10-16T02:27:34;100806.63;;;14.22;99.09
46303;BME280;32029;51.358;5.628;2022-10-16T02:30:18;100776.47;;;14.08;99.22
46303;BME280;32029;51.358;5.628;2022-10-16T02:32:48;100795.16;;;14.19;99.20
46303;BME280;32029;51.358;5.628;2022-10-16T02:35:17;100789.41;;;14.07;99.23
46303;BME280;32029;51.358;5.628;2022-10-16T02:37:46;100813.00;;;14.16;99.21
46303;BME280;32029;51.358;5.628;2022-10-16T02:40:14;100815.13;;;14.14;99.31
46303;BME280;32029;51.358;5.628;2022-10-16T02:42:41;100792.63;;;13.97;99.58
46303;BME280;32029;51.358;5.628;2022-10-16T02:45:10;100812.78;;;14.11;99.48
46303;BME280;32029;51.358;5.628;2022-10-16T02:47:38;100790.28;;;13.94;99.64
46303;BME280;32029;51.358;5.628;2022-10-16T02:50:05;100812.78;;;14.11;99.91
46303;BME280;32029;51.358;5.628;2022-10-16T02:52:32;100787.50;;;13.94;99.76
46303;BME280;32029;51.358;5.628;2022-10-16T02:54:58;100803.66;;;14.11;99.80
46303;BME280;32029;51.358;5.628;2022-10-16T02:57:25;100803.66;;;14.11;99.74
46303;BME280;32029;51.358;5.628;2022-10-16T02:59:52;100804.28;;;14.06;99.67
46303;BME280;32029;51.358;5.628;2022-10-16T03:02:19;100801.53;;;14.06;99.80
46303;BME280;32029;51.358;5.628;2022-10-16T03:04:45;100797.69;;;14.07;100.00
46303;BME280;32029;51.358;5.628;2022-10-16T03:07:12;100791.31;;;14.00;100.00
46303;BME280;32029;51.358;5.628;2022-10-16T03:09:39;100806.63;;;14.09;100.00
46303;BME280;32029;51.358;5.628;2022-10-16T03:12:06;100796.00;;;13.93;100.00
46303;BME280;32029;51.358;5.628;2022-10-16T03:14:33;100814.69;;;14.11;100.00
46303;BME280;32029;51.358;5.628;2022-10-16T03:17:00;100773.91;;;13.86;100.00
46303;BME280;32029;51.358;5.628;2022-10-16T03:19:27;100824.47;;;14.13;100.00
46303;BME280;32029;51.358;5.628;2022-10-16T03:21:53;100812.53;;;14.00;100.00
46303;BME280;32029;51.358;5.628;2022-10-16T03:24:20;100836.78;;;14.17;100.00
46303;BME280;32029;51.358;5.628;2022-10-16T03:26:47;100832.94;;;14.18;100.00
46303;BME280;32029;51.358;5.628;2022-10-16T03:29:13;100832.50;;;14.15;100.00
46303;BME280;32029;51.358;5.628;2022-10-16T03:31:41;100832.09;;;14.18;100.00
46303;BME280;32029;51.358;5.628;2022-10-16T03:34:08;100846.09;;;14.23;100.00
46303;BME280;32029;51.358;5.628;2022-10-16T03:36:35;100818.75;;;14.08;100.00
46303;BME280;32029;51.358;5.628;2022-10-16T03:39:02;100813.19;;;14.15;100.00
46303;BME280;32029;51.358;5.628;2022-10-16T03:41:29;100821.91;;;14.18;100.00
46303;BME280;32029;51.358;5.628;2022-10-16T03:43:55;100846.13;;;14.30;100.00
46303;BME280;32029;51.358;5.628;2022-10-16T03:46:22;100846.56;;;14.33;100.00
46303;BME280;32029;51.358;5.628;2022-10-16T03:48:49;100841.66;;;14.35;100.00
46303;BME280;32029;51.358;5.628;2022-10-16T03:51:15;100848.69;;;14.38;100.00
46303;BME280;32029;51.358;5.628;2022-10-16T03:53:43;100832.31;;;14.23;100.00
46303;BME280;32029;51.358;5.628;2022-10-16T03:56:09;100831.88;;;14.19;100.00
46303;BME280;32029;51.358;5.628;2022-10-16T03:58:37;100856.31;;;14.42;100.00
46303;BME280;32029;51.358;5.628;2022-10-16T04:01:04;100863.56;;;14.43;100.00
46303;BME280;32029;51.358;5.628;2022-10-16T04:03:30;100852.91;;;14.34;100.00
46303;BME280;32029;51.358;5.628;2022-10-16T04:05:57;100862.25;;;14.46;100.00
46303;BME280;32029;51.358;5.628;2022-10-16T04:08:24;100860.56;;;14.45;100.00
46303;BME280;32029;51.358;5.628;2022-10-16T04:10:50;100859.06;;;14.42;100.00
46303;BME280;32029;51.358;5.628;2022-10-16T04:13:17;100850.81;;;14.36;100.00
46303;BME280;32029;51.358;5.628;2022-10-16T04:15:45;100862.25;;;14.46;100.00
46303;BME280;32029;51.358;5.628;2022-10-16T04:18:12;100843.16;;;14.38;100.00
46303;BME280;32029;51.358;5.628;2022-10-16T04:20:38;100867.41;;;14.56;100.00
46303;BME280;32029;51.358;5.628;2022-10-16T04:23:06;100864.44;;;14.57;100.00
46303;BME280;32029;51.358;5.628;2022-10-16T04:25:33;100828.72;;;14.29;100.00
46303;BME280;32029;51.358;5.628;2022-10-16T04:28:00;100827.03;;;14.28;100.00
46303;BME280;32029;51.358;5.628;2022-10-16T04:30:27;100872.91;;;14.62;100.00
46303;BME280;32029;51.358;5.628;2022-10-16T04:32:53;100874.63;;;14.63;100.00
46303;BME280;32029;51.358;5.628;2022-10-16T04:35:21;100864.41;;;14.51;100.00
46303;BME280;32029;51.358;5.628;2022-10-16T04:37:48;100875.91;;;14.67;100.00
46303;BME280;32029;51.358;5.628;2022-10-16T04:40:15;100855.94;;;14.52;100.00
46303;BME280;32029;51.358;5.628;2022-10-16T04:42:42;100875.06;;;14.67;100.00
46303;BME280;32029;51.358;5.628;2022-10-16T04:45:09;100860.81;;;14.57;100.00
46303;BME280;32029;51.358;5.628;2022-10-16T04:47:35;100860.34;;;14.46;100.00
46303;BME280;32029;51.358;5.628;2022-10-16T04:50:02;100877.59;;;14.62;100.00
46303;BME280;32029;51.358;5.628;2022-10-16T04:52:29;100872.09;;;14.55;100.00
46303;BME280;32029;51.358;5.628;2022-10-16T04:54:58;100900.34;;;14.70;100.00
46303;BME280;32029;51.358;5.628;2022-10-16T04:57:29;100866.97;;;14.52;99.99
46303;BME280;32029;51.358;5.628;2022-10-16T04:59:56;100889.06;;;14.59;99.98
46303;BME280;32029;51.358;5.628;2022-10-16T05:02:23;100905.22;;;14.68;100.00
46303;BME280;32029;51.358;5.628;2022-10-16T05:04:51;100893.50;;;14.66;100.00
46303;BME280;32029;51.358;5.628;2022-10-16T05:07:18;100826.16;;;14.21;100.00
46303;BME280;32029;51.358;5.628;2022-10-16T05:09:46;100897.34;;;14.65;100.00
46303;BME280;32029;51.358;5.628;2022-10-16T05:12:12;100883.53;;;14.52;100.00
46303;BME280;32029;51.358;5.628;2022-10-16T05:14:39;100903.09;;;14.64;100.00
46303;BME280;32029;51.358;5.628;2022-10-16T05:17:06;100898.63;;;14.63;100.00
46303;BME280;32029;51.358;5.628;2022-10-16T05:19:32;100899.25;;;14.58;100.00
46303;BME280;32029;51.358;5.628;2022-10-16T05:21:59;100908.19;;;14.60;100.00
46303;BME280;32029;51.358;5.628;2022-10-16T05:24:26;100892.63;;;14.46;100.00
46303;BME280;32029;51.358;5.628;2022-10-16T05:26:53;100922.19;;;14.59;100.00
46303;BME280;32029;51.358;5.628;2022-10-16T05:29:20;100929.84;;;14.57;100.00
46303;BME280;32029;51.358;5.628;2022-10-16T05:31:50;100917.09;;;14.49;100.00
46303;BME280;32029;51.358;5.628;2022-10-16T05:34:16;100908.56;;;14.44;100.00
46303;BME280;32029;51.358;5.628;2022-10-16T05:36:43;100931.75;;;14.56;100.00
46303;BME280;32029;51.358;5.628;2022-10-16T05:39:13;100930.25;;;14.54;100.00
46303;BME280;32029;51.358;5.628;2022-10-16T05:41:39;100940.47;;;14.53;100.00
46303;BME280;32029;51.358;5.628;2022-10-16T05:44:06;100943.22;;;14.53;100.00
46303;BME280;32029;51.358;5.628;2022-10-16T05:46:33;100953.66;;;14.51;100.00
46303;BME280;32029;51.358;5.628;2022-10-16T05:49:01;100939.56;;;14.39;100.00
46303;BME280;32029;51.358;5.628;2022-10-16T05:51:28;100958.28;;;14.44;100.00
46303;BME280;32029;51.358;5.628;2022-10-16T05:53:54;100961.44;;;14.41;100.00
46303;BME280;32029;51.358;5.628;2022-10-16T05:56:21;100972.25;;;14.42;100.00
46303;BME280;32029;51.358;5.628;2022-10-16T05:58:48;100938.91;;;14.24;100.00
46303;BME280;32029;51.358;5.628;2022-10-16T06:01:16;100956.56;;;14.36;100.00
46303;BME280;32029;51.358;5.628;2022-10-16T06:03:44;100977.34;;;14.39;100.00
46303;BME280;32029;51.358;5.628;2022-10-16T06:06:13;100989.47;;;14.38;100.00
46303;BME280;32029;51.358;5.628;2022-10-16T06:08:43;100980.75;;;14.28;100.00
46303;BME280;32029;51.358;5.628;2022-10-16T06:11:13;100989.25;;;14.33;100.00
46303;BME280;32029;51.358;5.628;2022-10-16T06:13:40;101006.25;;;14.36;100.00
46303;BME280;32029;51.358;5.628;2022-10-16T06:16:12;100984.13;;;14.30;100.00
46303;BME280;32029;51.358;5.628;2022-10-16T06:18:39;100993.06;;;14.32;100.00
46303;BME280;32029;51.358;5.628;2022-10-16T06:21:08;100993.03;;;14.25;100.00
46303;BME280;32029;51.358;5.628;2022-10-16T06:23:36;100982.38;;;14.15;100.00
46303;BME280;32029;51.358;5.628;2022-10-16T06:26:11;100998.56;;;14.25;100.00
46303;BME280;32029;51.358;5.628;2022-10-16T06:28:38;100994.28;;;14.22;100.00
46303;BME280;32029;51.358;5.628;2022-10-16T06:31:07;101016.88;;;14.39;100.00
46303;BME280;32029;51.358;5.628;2022-10-16T06:33:35;101030.44;;;14.41;100.00
46303;BME280;32029;51.358;5.628;2022-10-16T06:36:11;101032.16;;;14.42;100.00
46303;BME280;32029;51.358;5.628;2022-10-16T06:38:38;101023.66;;;14.37;100.00
46303;BME280;32029;51.358;5.628;2022-10-16T06:41:06;101038.94;;;14.39;100.00
46303;BME280;32029;51.358;5.628;2022-10-16T06:43:33;101046.59;;;14.44;100.00
46303;BME280;32029;51.358;5.628;2022-10-16T06:46:04;101023.22;;;14.33;100.00
46303;BME280;32029;51.358;5.628;2022-10-16T06:48:31;101004.50;;;14.29;100.00
46303;BME280;32029;51.358;5.628;2022-10-16T06:51:03;101030.44;;;14.41;100.00
46303;BME280;32029;51.358;5.628;2022-10-16T06:53:33;101027.91;;;14.39;100.00
46303;BME280;32029;51.358;5.628;2022-10-16T06:56:08;101035.56;;;14.44;100.00
46303;BME280;32029;51.358;5.628;2022-10-16T06:58:35;101030.03;;;14.44;100.00
46303;BME280;32029;51.358;5.628;2022-10-16T07:01:02;101017.47;;;14.35;100.00
46303;BME280;32029;51.358;5.628;2022-10-16T07:03:29;101060.28;;;14.65;100.00
46303;BME280;32029;51.358;5.628;2022-10-16T07:05:56;101038.16;;;14.52;100.00
46303;BME280;32029;51.358;5.628;2022-10-16T07:08:22;101045.41;;;14.60;100.00
46303;BME280;32029;51.358;5.628;2022-10-16T07:11:04;101071.38;;;14.79;100.00
46303;BME280;32029;51.358;5.628;2022-10-16T07:13:36;101077.53;;;14.81;100.00
46303;BME280;32029;51.358;5.628;2022-10-16T07:18:40;101069.66;;;14.78;100.00
46303;BME280;32029;51.358;5.628;2022-10-16T07:21:10;101090.94;;;14.97;100.00
46303;BME280;32029;51.358;5.628;2022-10-16T07:23:38;101094.16;;;15.01;100.00
46303;BME280;32029;51.358;5.628;2022-10-16T07:26:05;101090.09;;;14.97;100.00
46303;BME280;32029;51.358;5.628;2022-10-16T07:28:32;101084.56;;;14.97;100.00
46303;BME280;32029;51.358;5.628;2022-10-16T07:31:07;101101.59;;;15.00;100.00
46303;BME280;32029;51.358;5.628;2022-10-16T07:33:38;101125.22;;;15.23;100.00
46303;BME280;32029;51.358;5.628;2022-10-16T07:36:05;101121.59;;;15.15;100.00
46303;BME280;32029;51.358;5.628;2022-10-16T07:38:32;101127.34;;;15.20;100.00
46303;BME280;32029;51.358;5.628;2022-10-16T07:41:04;101099.47;;;15.09;100.00
46303;BME280;32029;51.358;5.628;2022-10-16T07:43:32;101136.28;;;15.36;100.00
46303;BME280;32029;51.358;5.628;2022-10-16T07:46:00;101132.25;;;15.38;100.00
46303;BME280;32029;51.358;5.628;2022-10-16T07:48:29;101136.50;;;15.48;100.00
46303;BME280;32029;51.358;5.628;2022-10-16T07:51:07;101136.53;;;15.54;100.00
46303;BME280;32029;51.358;5.628;2022-10-16T07:53:33;101146.75;;;15.60;100.00
46303;BME280;32029;51.358;5.628;2022-10-16T07:56:05;101076.97;;;15.25;99.96
46303;BME280;32029;51.358;5.628;2022-10-16T07:58:33;101162.94;;;15.77;100.00
46303;BME280;32029;51.358;5.628;2022-10-16T08:01:04;101157.38;;;15.83;99.69
46303;BME280;32029;51.358;5.628;2022-10-16T08:03:32;101164.63;;;15.78;99.64
46303;BME280;32029;51.358;5.628;2022-10-16T08:06:00;101148.47;;;15.75;99.31
46303;BME280;32029;51.358;5.628;2022-10-16T08:08:28;101169.09;;;15.85;98.84
46303;BME280;32029;51.358;5.628;2022-10-16T08:10:55;101176.97;;;15.88;98.37
46303;BME280;32029;51.358;5.628;2022-10-16T08:13:22;101169.31;;;15.84;98.24
46303;BME280;32029;51.358;5.628;2022-10-16T08:15:49;101171.22;;;15.90;97.96
46303;BME280;32029;51.358;5.628;2022-10-16T08:18:16;101174.41;;;15.93;97.73
46303;BME280;32029;51.358;5.628;2022-10-16T08:20:45;101194.63;;;16.21;97.58
46303;BME280;32029;51.358;5.628;2022-10-16T08:23:12;101200.34;;;16.26;97.29
46303;BME280;32029;51.358;5.628;2022-10-16T08:25:40;101189.91;;;16.28;96.89
46303;BME280;32029;51.358;5.628;2022-10-16T08:28:09;101179.50;;;16.23;96.09
46303;BME280;32029;51.358;5.628;2022-10-16T08:30:36;101206.50;;;16.41;95.74
46303;BME280;32029;51.358;5.628;2022-10-16T08:33:03;101214.78;;;16.48;95.19
46303;BME280;32029;51.358;5.628;2022-10-16T08:35:31;101207.34;;;16.48;95.26
46303;BME280;32029;51.358;5.628;2022-10-16T08:37:59;101194.97;;;16.51;94.88
46303;BME280;32029;51.358;5.628;2022-10-16T08:40:28;101209.19;;;16.67;94.75
46303;BME280;32029;51.358;5.628;2022-10-16T08:46:09;101221.31;;;16.80;93.36
46303;BME280;32029;51.358;5.628;2022-10-16T08:49:00;101205.78;;;16.65;93.22
46303;BME280;32029;51.358;5.628;2022-10-16T08:51:36;101221.31;;;16.86;92.90
46303;BME280;32029;51.358;5.628;2022-10-16T08:56:39;101185.72;;;16.77;91.59
46303;BME280;32029;51.358;5.628;2022-10-16T08:59:10;101239.34;;;17.09;91.43
46303;BME280;32029;51.358;5.628;2022-10-16T09:01:40;101245.47;;;17.18;91.32
46303;BME280;32029;51.358;5.628;2022-10-16T09:06:50;101237.78;;;17.20;90.31
46303;BME280;32029;51.358;5.628;2022-10-16T09:09:28;101249.91;;;17.32;90.25
46303;BME280;32029;51.358;5.628;2022-10-16T09:20:19;101192.47;;;17.01;89.49
46303;BME280;32029;51.358;5.628;2022-10-16T09:22:53;101234.50;;;17.36;89.43
46303;BME280;32029;51.358;5.628;2022-10-16T09:25:22;101277.03;;;17.61;89.29
46303;BME280;32029;51.358;5.628;2022-10-16T09:27:52;101224.19;;;17.43;88.99
46303;BME280;32029;51.358;5.628;2022-10-16T09:30:21;101268.00;;;17.73;89.28
46303;BME280;32029;51.358;5.628;2022-10-16T09:32:57;101273.03;;;17.89;86.81
46303;BME280;32029;51.358;5.628;2022-10-16T09:35:49;101264.50;;;17.91;86.49
46303;BME280;32029;51.358;5.628;2022-10-16T09:38:29;101276.44;;;17.91;85.99
46303;BME280;32029;51.358;5.628;2022-10-16T09:40:58;101240.66;;;17.76;85.77
46303;BME280;32029;51.358;5.628;2022-10-16T09:46:08;101195.59;;;17.49;86.74
46303;BME280;32029;51.358;5.628;2022-10-16T09:48:48;101269.06;;;18.03;85.51
46303;BME280;32029;51.358;5.628;2022-10-16T09:51:41;101279.25;;;18.09;85.71
46303;BME280;32029;51.358;5.628;2022-10-16T09:56:36;101290.88;;;18.25;85.36
46303;BME280;32029;51.358;5.628;2022-10-16T09:59:10;101194.41;;;17.63;84.12
46303;BME280;32029;51.358;5.628;2022-10-16T10:01:41;101278.59;;;18.39;84.02
46303;BME280;32029;51.358;5.628;2022-10-16T10:04:10;101279.38;;;18.46;84.18
46303;BME280;32029;51.358;5.628;2022-10-16T10:06:44;101220.75;;;18.11;81.44
46303;BME280;32029;51.358;5.628;2022-10-16T10:09:21;101288.31;;;18.48;81.39
46303;BME280;32029;51.358;5.628;2022-10-16T10:11:53;101283.25;;;18.45;80.96
46303;BME280;32029;51.358;5.628;2022-10-16T10:14:36;101286.63;;;18.47;81.39
46303;BME280;32029;51.358;5.628;2022-10-16T10:22:42;101246.03;;;18.46;80.98
46303;BME280;32029;51.358;5.628;2022-10-16T10:33:47;101287.41;;;18.98;79.11
46303;BME280;32029;51.358;5.628;2022-10-16T10:36:44;101296.75;;;19.03;78.30
46303;BME280;32029;51.358;5.628;2022-10-16T10:39:40;101292.81;;;19.11;77.90
46303;BME280;32029;51.358;5.628;2022-10-16T10:42:22;101301.31;;;19.16;78.55
46303;BME280;32029;51.358;5.628;2022-10-16T10:45:27;101298.13;;;19.31;78.06
46303;BME280;32029;51.358;5.628;2022-10-16T10:50:52;101303.81;;;19.54;77.67
46303;BME280;32029;51.358;5.628;2022-10-16T10:58:49;101316.78;;;19.79;75.82
46303;BME280;32029;51.358;5.628;2022-10-16T11:04:35;101316.56;;;19.92;75.58
46303;BME280;32029;51.358;5.628;2022-10-16T11:07:17;101270.16;;;19.74;74.92
46303;BME280;32029;51.358;5.628;2022-10-16T11:09:51;101319.06;;;20.24;74.10
46303;BME280;32029;51.358;5.628;2022-10-16T11:12:25;101320.53;;;20.38;72.55
46303;BME280;32029;51.358;5.628;2022-10-16T11:15:05;101289.88;;;20.26;70.92
46303;BME280;32029;51.358;5.628;2022-10-16T11:18:15;101317.88;;;20.43;71.43
46303;BME280;32029;51.358;5.628;2022-10-16T11:20:50;101309.66;;;20.37;70.96
46303;BME280;32029;51.358;5.628;2022-10-16T11:23:33;101236.63;;;19.81;72.29
46303;BME280;32029;51.358;5.628;2022-10-16T11:26:05;101214.03;;;19.59;71.61
46303;BME280;32029;51.358;5.628;2022-10-16T11:28:45;101318.59;;;20.27;72.08
46303;BME280;32029;51.358;5.628;2022-10-16T11:34:01;101326.44;;;20.18;72.35
46303;BME280;32029;51.358;5.628;2022-10-16T11:36:39;101251.72;;;19.73;71.42
46303;BME280;32029;51.358;5.628;2022-10-16T11:39:25;101333.81;;;20.13;72.42
46303;BME280;32029;51.358;5.628;2022-10-16T11:41:54;101340.13;;;20.20;72.28
46303;BME280;32029;51.358;5.628;2022-10-16T11:44:41;101338.59;;;20.36;72.40
46303;BME280;32029;51.358;5.628;2022-10-16T11:50:01;101262.38;;;20.30;69.75
46303;BME280;32029;51.358;5.628;2022-10-16T11:52:40;101330.41;;;20.76;68.97
46303;BME280;32029;51.358;5.628;2022-10-16T11:55:17;101301.81;;;20.57;70.34
46303;BME280;32029;51.358;5.628;2022-10-16T11:57:51;101267.50;;;20.57;69.62
46303;BME280;32029;51.358;5.628;2022-10-16T12:00:29;101332.09;;;21.00;68.89
46303;BME280;32029;51.358;5.628;2022-10-16T12:03:11;101327.34;;;21.01;69.75
46303;BME280;32029;51.358;5.628;2022-10-16T12:06:06;101325.78;;;21.05;69.59
46303;BME280;32029;51.358;5.628;2022-10-16T12:08:36;101321.03;;;21.05;68.98
46303;BME280;32029;51.358;5.628;2022-10-16T12:11:32;101315.00;;;20.85;68.82
46303;BME280;32029;51.358;5.628;2022-10-16T12:14:05;101319.25;;;20.99;70.11
46303;BME280;32029;51.358;5.628;2022-10-16T12:16:37;101325.03;;;20.98;69.07
46303;BME280;32029;51.358;5.628;2022-10-16T12:19:17;101306.53;;;20.68;68.93
46303;BME280;32029;51.358;5.628;2022-10-16T12:21:45;101276.78;;;20.39;69.86
46303;BME280;32029;51.358;5.628;2022-10-16T12:24:41;101338.63;;;20.83;69.46
46303;BME280;32029;51.358;5.628;2022-10-16T12:29:57;101188.94;;;19.89;69.55
46303;BME280;32029;51.358;5.628;2022-10-16T12:32:33;101334.41;;;20.80;69.89
46303;BME280;32029;51.358;5.628;2022-10-16T12:35:02;101296.44;;;20.67;70.42
46303;BME280;32029;51.358;5.628;2022-10-16T12:37:33;101258.53;;;20.54;69.49
46303;BME280;32029;51.358;5.628;2022-10-16T12:40:14;101277.09;;;20.61;68.17
46303;BME280;32029;51.358;5.628;2022-10-16T12:42:41;101245.56;;;20.48;68.19
46303;BME280;32029;51.358;5.628;2022-10-16T12:45:31;101299.00;;;20.80;68.56
46303;BME280;32029;51.358;5.628;2022-10-16T12:48:01;101283.00;;;20.76;67.27
46303;BME280;32029;51.358;5.628;2022-10-16T12:50:39;101291.97;;;20.78;68.07
46303;BME280;32029;51.358;5.628;2022-10-16T12:53:21;101335.59;;;21.08;66.95
46303;BME280;32029;51.358;5.628;2022-10-16T13:04:39;101336.09;;;21.04;67.41
46303;BME280;32029;51.358;5.628;2022-10-16T13:10:00;101323.09;;;21.10;68.77
46303;BME280;32029;51.358;5.628;2022-10-16T13:13:02;101312.50;;;21.24;69.10
46303;BME280;32029;51.358;5.628;2022-10-16T13:18:32;101273.13;;;21.09;68.50
46303;BME280;32029;51.358;5.628;2022-10-16T13:28:50;101346.19;;;21.58;67.60
46303;BME280;32029;51.358;5.628;2022-10-16T13:31:22;101346.00;;;21.76;68.14
46303;BME280;32029;51.358;5.628;2022-10-16T13:33:56;101341.09;;;21.83;67.60
46303;BME280;32029;51.358;5.628;2022-10-16T13:37:15;101342.41;;;21.92;68.24
46303;BME280;32029;51.358;5.628;2022-10-16T13:39:29;101279.28;;;21.63;68.19
46303;BME280;32029;51.358;5.628;2022-10-16T13:42:07;101341.94;;;22.12;67.65
46303;BME280;32029;51.358;5.628;2022-10-16T13:44:45;101357.50;;;22.20;67.41
46303;BME280;32029;51.358;5.628;2022-10-16T13:47:19;101356.47;;;22.26;67.26
46303;BME280;32029;51.358;5.628;2022-10-16T13:49:48;101321.78;;;22.10;67.09
46303;BME280;32029;51.358;5.628;2022-10-16T13:52:26;101177.59;;;21.30;67.21
46303;BME280;32029;51.358;5.628;2022-10-16T13:54:53;101320.19;;;22.14;67.14
46303;BME280;32029;51.358;5.628;2022-10-16T13:57:23;101355.38;;;22.44;68.06
46303;BME280;32029;51.358;5.628;2022-10-16T13:59:52;101364.13;;;22.47;67.83
46303;BME280;32029;51.358;5.628;2022-10-16T14:02:33;101371.97;;;22.50;67.71
46303;BME280;32029;51.358;5.628;2022-10-16T14:05:02;101325.41;;;22.39;67.09
46303;BME280;32029;51.358;5.628;2022-10-16T14:07:33;101330.47;;;22.42;66.96
46303;BME280;32029;51.358;5.628;2022-10-16T14:10:20;101364.88;;;22.60;67.24
46303;BME280;32029;51.358;5.628;2022-10-16T14:12:57;101316.91;;;22.34;67.35
46303;BME280;32029;51.358;5.628;2022-10-16T14:15:25;101369.09;;;22.62;66.20
46303;BME280;32029;51.358;5.628;2022-10-16T14:17:53;101374.94;;;22.61;66.73
46303;BME280;32029;51.358;5.628;2022-10-16T14:20:26;101367.41;;;22.61;67.00
46303;BME280;32029;51.358;5.628;2022-10-16T14:28:37;101315.91;;;22.40;66.92
46303;BME280;32029;51.358;5.628;2022-10-16T14:31:54;101356.06;;;22.68;66.83
46303;BME280;32029;51.358;5.628;2022-10-16T14:34:42;101343.75;;;22.69;67.23
46303;BME280;32029;51.358;5.628;2022-10-16T14:39:42;101353.75;;;22.65;67.38
46303;BME280;32029;51.358;5.628;2022-10-16T14:42:18;101350.28;;;22.58;67.42
46303;BME280;32029;51.358;5.628;2022-10-16T14:50:01;101366.56;;;22.61;68.71
46303;BME280;32029;51.358;5.628;2022-10-16T14:52:28;101349.28;;;22.64;69.06